Time;durP1;ratioP1;P1;durP2;ratioP2;P2;SDS_P1;SDS_P2;PMS_P1;PMS_P2;Temp;Humidity;BMP_temperature;BMP_pressure;BME280_temperature;BME280_humidity;BME280_pressure;Samples;Min_cycle;Max_cycle;Signal;HPM_P1;HPM_P2
2023/12/27 00:00:04;;;;;;;3.60;1.67;;;4.50;99.90;;;;;;6339373;22;20015;-77
2023/12/27 00:02:32;;;;;;;3.15;1.65;;;4.50;99.90;;;;;;6286345;22;20030;-77
2023/12/27 00:04:59;;;;;;;3.38;1.60;;;4.50;99.90;;;;;;6285780;22;20023;-77
2023/12/27 00:07:26;;;;;;;6.60;2.85;;;4.50;99.90;;;;;;6311597;22;20404;-77
2023/12/27 00:09:53;;;;;;;3.33;1.52;;;4.50;99.90;;;;;;6285828;22;20441;-77
2023/12/27 00:12:20;;;;;;;3.70;1.77;;;4.40;99.90;;;;;;6260012;22;20023;-77
2023/12/27 00:14:47;;;;;;;3.53;1.40;;;4.40;99.90;;;;;;6311494;22;20373;-77
2023/12/27 00:17:14;;;;;;;4.07;1.50;;;4.40;99.90;;;;;;6311273;22;20441;-79
2023/12/27 00:19:41;;;;;;;3.53;1.63;;;4.30;99.90;;;;;;6286780;22;20440;-79
2023/12/27 00:22:08;;;;;;;3.10;1.27;;;4.30;99.90;;;;;;6287720;22;20022;-79
2023/12/27 00:24:35;;;;;;;3.60;1.30;;;4.30;99.90;;;;;;6287524;22;20022;-77
2023/12/27 00:27:02;;;;;;;2.92;1.23;;;4.30;99.90;;;;;;6340668;22;20019;-76
2023/12/27 00:29:31;;;;;;;3.45;1.50;;;4.20;99.90;;;;;;6287585;22;20023;-76
2023/12/27 00:31:58;;;;;;;3.78;1.30;;;4.20;99.90;;;;;;6312937;22;20356;-76
2023/12/27 00:34:25;;;;;;;3.38;1.42;;;4.20;99.90;;;;;;6312703;22;20068;-76
2023/12/27 00:36:52;;;;;;;2.22;1.25;;;4.10;99.90;;;;;;6312747;22;20042;-76
2023/12/27 00:39:23;;;;;;;3.17;1.27;;;4.10;99.90;;;;;;6256448;22;20023;-76
2023/12/27 00:41:51;;;;;;;3.05;1.30;;;4.00;99.90;;;;;;6283186;22;20326;-76
2023/12/27 00:44:19;;;;;;;4.05;1.13;;;4.00;99.90;;;;;;6309068;22;20031;-76
2023/12/27 00:46:46;;;;;;;3.25;1.33;;;4.00;99.90;;;;;;6282007;22;20388;-76
2023/12/27 00:49:13;;;;;;;3.22;1.10;;;4.00;99.90;;;;;;6282096;22;20022;-76
2023/12/27 00:51:40;;;;;;;2.88;1.30;;;3.90;99.90;;;;;;6256810;22;20437;-76
2023/12/27 00:54:08;;;;;;;3.50;1.13;;;3.90;99.90;;;;;;6255914;22;20088;-76
2023/12/27 00:56:35;;;;;;;2.80;1.17;;;3.90;99.90;;;;;;6308968;22;20456;-76
2023/12/27 00:59:02;;;;;;;2.65;1.20;;;3.90;99.90;;;;;;6281404;22;20019;-76
2023/12/27 01:01:31;;;;;;;2.85;1.33;;;3.80;99.90;;;;;;6256295;22;20049;-76
2023/12/27 01:03:59;;;;;;;2.92;1.30;;;3.80;99.90;;;;;;6257269;22;20030;-76
2023/12/27 01:06:26;;;;;;;2.75;1.10;;;3.80;99.90;;;;;;6281603;22;20365;-76
2023/12/27 01:08:53;;;;;;;3.42;1.50;;;3.80;99.90;;;;;;6256188;22;20023;-76
2023/12/27 01:11:20;;;;;;;2.65;1.25;;;3.70;99.90;;;;;;6256212;22;20075;-76
2023/12/27 01:13:47;;;;;;;3.50;0.90;;;3.70;99.90;;;;;;6255859;22;20445;-76
2023/12/27 01:16:15;;;;;;;2.50;1.05;;;3.70;99.90;;;;;;6281279;22;20019;-76
2023/12/27 01:18:42;;;;;;;3.47;1.40;;;3.70;99.90;;;;;;6256162;22;20019;-76
2023/12/27 01:21:09;;;;;;;3.60;1.38;;;3.70;99.90;;;;;;6256185;22;20030;-76
2023/12/27 01:23:36;;;;;;;3.75;1.10;;;3.70;99.90;;;;;;6239768;22;20031;-76
2023/12/27 01:26:03;;;;;;;2.08;1.00;;;3.70;99.90;;;;;;6275817;22;20029;-76
2023/12/27 01:28:31;;;;;;;4.07;1.08;;;3.70;99.90;;;;;;6282213;22;20027;-76
2023/12/27 01:30:58;;;;;;;3.75;1.17;;;3.70;99.90;;;;;;6281546;22;20019;-76
2023/12/27 01:33:26;;;;;;;3.45;1.45;;;3.70;99.90;;;;;;6256004;22;20073;-76
2023/12/27 01:35:53;;;;;;;4.35;1.50;;;3.70;99.90;;;;;;6231091;22;20019;-76
2023/12/27 01:38:20;;;;;;;2.80;1.08;;;3.80;99.90;;;;;;6323517;22;20023;-77
2023/12/27 01:40:49;;;;;;;4.95;1.75;;;3.80;99.90;;;;;;6312649;22;20015;-76
2023/12/27 01:43:16;;;;;;;2.80;1.20;;;3.80;99.90;;;;;;6339577;22;20021;-76
2023/12/27 01:45:46;;;;;;;3.80;1.60;;;3.80;99.90;;;;;;6312081;22;20023;-76
2023/12/27 01:48:13;;;;;;;2.85;1.25;;;3.90;99.90;;;;;;6311814;22;20453;-76
2023/12/27 01:50:42;;;;;;;3.17;1.35;;;3.90;99.90;;;;;;6261588;22;20053;-76
2023/12/27 01:53:10;;;;;;;3.70;1.27;;;3.90;99.90;;;;;;6311778;22;20022;-76
2023/12/27 01:55:37;;;;;;;2.45;0.98;;;3.90;99.90;;;;;;6261327;22;20025;-76
2023/12/27 01:58:10;;;;;;;3.78;2.05;;;3.90;99.90;;;;;;6286904;22;20014;-76
2023/12/27 02:00:41;;;;;;;4.25;1.77;;;3.90;99.90;;;;;;6286330;22;20558;-76
2023/12/27 02:03:10;;;;;;;4.22;1.67;;;3.90;99.90;;;;;;6311835;22;20399;-76
2023/12/27 02:05:38;;;;;;;4.53;1.70;;;3.90;99.90;;;;;;6312269;22;20090;-76
2023/12/27 02:08:08;;;;;;;3.13;1.20;;;3.90;99.90;;;;;;6286004;22;20072;-77
2023/12/27 02:10:35;;;;;;;3.47;1.45;;;4.00;99.90;;;;;;6286235;22;20023;-76
2023/12/27 02:13:04;;;;;;;2.95;1.27;;;4.00;99.90;;;;;;6339350;22;20021;-76
2023/12/27 02:15:31;;;;;;;2.63;0.95;;;4.00;99.90;;;;;;6285931;22;20039;-76
2023/12/27 02:18:00;;;;;;;3.70;1.67;;;4.00;99.90;;;;;;6311730;22;20014;-76
2023/12/27 02:20:27;;;;;;;3.85;1.52;;;4.00;99.90;;;;;;6311692;22;20400;-76
2023/12/27 02:22:57;;;;;;;3.75;1.45;;;4.00;99.90;;;;;;6260738;22;20023;-77
2023/12/27 02:25:24;;;;;;;5.40;1.80;;;4.00;99.90;;;;;;6312254;22;20022;-76
2023/12/27 02:27:51;;;;;;;3.75;1.40;;;4.00;99.90;;;;;;6311696;22;20072;-76
2023/12/27 02:30:21;;;;;;;2.58;1.20;;;3.90;99.90;;;;;;6286189;22;20023;-76
2023/12/27 02:32:50;;;;;;;3.17;1.17;;;3.90;99.90;;;;;;6285895;22;20025;-76
2023/12/27 02:35:18;;;;;;;3.03;1.20;;;3.90;99.90;;;;;;6286070;22;20038;-76
2023/12/27 02:37:46;;;;;;;2.75;0.98;;;3.90;99.90;;;;;;6292595;22;20016;-76
2023/12/27 02:40:13;;;;;;;3.53;1.50;;;3.80;99.90;;;;;;6244743;22;20020;-76
2023/12/27 02:42:40;;;;;;;3.67;1.48;;;3.90;99.90;;;;;;6280189;22;20023;-76
2023/12/27 02:45:07;;;;;;;4.63;1.33;;;3.80;99.90;;;;;;6307967;22;20042;-76
2023/12/27 02:47:34;;;;;;;2.55;1.35;;;3.80;99.90;;;;;;6230375;22;20445;-76
2023/12/27 02:50:03;;;;;;;3.75;1.38;;;3.80;99.90;;;;;;6255215;22;20029;-76
2023/12/27 02:52:30;;;;;;;3.13;1.45;;;3.80;99.90;;;;;;6254863;22;20400;-76
2023/12/27 02:54:57;;;;;;;3.65;1.60;;;3.90;99.90;;;;;;6280560;22;20011;-76
2023/12/27 02:57:24;;;;;;;2.70;1.35;;;3.90;99.90;;;;;;6230082;22;20019;-76
2023/12/27 02:59:51;;;;;;;6.72;1.83;;;3.90;99.90;;;;;;6280660;22;20046;-76
2023/12/27 03:02:18;;;;;;;3.00;1.33;;;4.00;99.90;;;;;;6229926;22;20438;-76
2023/12/27 03:04:46;;;;;;;3.47;1.33;;;4.10;99.90;;;;;;6230208;22;20035;-76
2023/12/27 03:07:13;;;;;;;3.38;1.60;;;4.10;99.90;;;;;;6280452;22;20023;-76
2023/12/27 03:09:40;;;;;;;4.05;1.55;;;4.20;99.90;;;;;;6280523;22;20023;-76
2023/12/27 03:12:07;;;;;;;4.32;1.70;;;4.20;99.90;;;;;;6255307;22;20023;-76
2023/12/27 03:14:34;;;;;;;4.45;1.55;;;4.20;99.90;;;;;;6204850;22;20039;-76
2023/12/27 03:17:01;;;;;;;3.30;1.55;;;4.20;99.90;;;;;;6280456;22;20118;-76
2023/12/27 03:19:28;;;;;;;4.28;1.48;;;4.20;99.90;;;;;;6280265;22;20023;-76
2023/12/27 03:21:55;;;;;;;2.92;1.27;;;4.20;99.90;;;;;;6280678;22;20392;-76
2023/12/27 03:24:23;;;;;;;3.03;1.48;;;4.30;99.90;;;;;;6280059;22;20022;-76
2023/12/27 03:26:51;;;;;;;3.33;1.52;;;4.30;99.90;;;;;;6255324;22;20015;-76
2023/12/27 03:29:18;;;;;;;3.70;1.52;;;4.30;99.90;;;;;;6204799;22;20023;-76
2023/12/27 03:31:44;;;;;;;3.90;1.80;;;4.40;99.90;;;;;;6281119;22;20020;-76
2023/12/27 03:34:11;;;;;;;2.85;1.40;;;4.40;99.90;;;;;;6280014;22;20019;-76
2023/12/27 03:36:38;;;;;;;3.20;1.52;;;4.40;99.90;;;;;;6256413;22;20020;-76
2023/12/27 03:39:05;;;;;;;3.08;1.35;;;4.50;99.90;;;;;;6303913;22;20015;-76
2023/12/27 03:41:33;;;;;;;5.07;1.38;;;4.50;99.90;;;;;;6298827;22;20033;-76
2023/12/27 03:44:00;;;;;;;4.53;1.30;;;4.50;99.90;;;;;;6300196;22;20045;-76
2023/12/27 03:46:27;;;;;;;3.45;1.77;;;4.60;99.90;;;;;;6286757;22;20095;-76
2023/12/27 03:48:54;;;;;;;3.63;1.30;;;4.60;99.90;;;;;;6286625;22;20030;-76
2023/12/27 03:51:24;;;;;;;3.53;1.65;;;4.60;99.90;;;;;;6311766;22;20528;-76
2023/12/27 03:53:52;;;;;;;6.25;1.45;;;4.60;99.90;;;;;;6287216;22;20048;-76
2023/12/27 03:56:18;;;;;;;2.53;1.75;;;4.60;99.90;;;;;;6287724;22;20437;-76
2023/12/27 03:58:45;;;;;;;3.53;1.80;;;4.60;99.90;;;;;;6287713;22;20440;-77
2023/12/27 04:01:12;;;;;;;3.83;1.52;;;4.70;99.90;;;;;;6287714;22;20349;-76
2023/12/27 04:03:40;;;;;;;3.42;1.77;;;4.70;99.90;;;;;;6261945;22;20113;-76
2023/12/27 04:06:07;;;;;;;3.65;1.35;;;4.70;99.90;;;;;;6287754;22;20022;-76
2023/12/27 04:08:34;;;;;;;3.25;1.40;;;4.70;99.90;;;;;;6287049;22;20392;-76
2023/12/27 04:11:01;;;;;;;5.07;1.40;;;4.70;99.90;;;;;;6287584;22;20027;-76
2023/12/27 04:13:28;;;;;;;3.42;1.15;;;4.70;99.90;;;;;;6287629;22;20019;-76
2023/12/27 04:15:55;;;;;;;3.30;1.63;;;4.70;99.90;;;;;;6312893;22;20018;-76
2023/12/27 04:18:22;;;;;;;3.55;1.40;;;4.70;99.90;;;;;;6313088;22;20015;-76
2023/12/27 04:20:49;;;;;;;5.25;1.40;;;4.70;99.90;;;;;;6312949;22;20064;-76
2023/12/27 04:23:16;;;;;;;6.10;2.35;;;4.80;99.90;;;;;;6287310;22;20049;-76
2023/12/27 04:25:44;;;;;;;5.25;1.90;;;4.70;99.90;;;;;;6287772;22;20019;-76
2023/12/27 04:28:11;;;;;;;5.80;1.85;;;4.70;99.90;;;;;;6312813;22;20453;-76
2023/12/27 04:30:38;;;;;;;3.85;1.73;;;4.70;99.90;;;;;;6261956;22;20042;-76
2023/12/27 04:33:06;;;;;;;5.18;1.48;;;4.70;99.90;;;;;;6287060;22;20029;-76
2023/12/27 04:35:33;;;;;;;3.70;1.83;;;4.80;99.90;;;;;;6287228;22;20429;-76
2023/12/27 04:38:00;;;;;;;3.78;1.58;;;4.80;99.90;;;;;;6287362;22;20034;-76
2023/12/27 04:40:28;;;;;;;5.15;1.90;;;4.80;99.90;;;;;;6313296;22;20337;-76
2023/12/27 04:42:55;;;;;;;4.93;1.50;;;4.80;99.90;;;;;;6287352;22;20022;-76
2023/12/27 04:45:22;;;;;;;3.70;1.98;;;4.80;99.90;;;;;;6287295;22;20019;-76
2023/12/27 04:47:49;;;;;;;6.22;1.50;;;4.80;99.90;;;;;;6287407;22;20042;-76
2023/12/27 04:50:19;;;;;;;3.53;1.60;;;4.90;99.90;;;;;;6340311;22;20015;-76
2023/12/27 04:52:46;;;;;;;7.00;1.90;;;4.90;99.90;;;;;;6312880;22;20015;-76
2023/12/27 04:55:13;;;;;;;3.60;1.70;;;4.90;99.90;;;;;;6312630;22;20026;-77
2023/12/27 04:57:40;;;;;;;4.45;1.73;;;4.90;99.90;;;;;;6313085;22;20330;-76
2023/12/27 05:00:08;;;;;;;4.13;1.95;;;4.90;99.90;;;;;;6286897;22;20097;-76
2023/12/27 05:02:35;;;;;;;3.70;1.83;;;5.00;99.90;;;;;;6312652;22;20045;-76
2023/12/27 05:05:03;;;;;;;2.88;1.10;;;5.00;99.90;;;;;;6287295;22;20123;-76
2023/12/27 05:07:30;;;;;;;4.97;1.35;;;5.00;99.90;;;;;;6312811;22;20038;-76
2023/12/27 05:09:57;;;;;;;4.60;1.48;;;5.00;99.90;;;;;;6287394;22;20018;-76
2023/12/27 05:12:24;;;;;;;2.75;1.40;;;5.10;99.90;;;;;;6286926;22;20029;-76
2023/12/27 05:14:51;;;;;;;3.25;1.52;;;5.10;99.90;;;;;;6312878;22;20408;-76
2023/12/27 05:17:18;;;;;;;3.42;1.42;;;5.10;99.90;;;;;;6261758;22;20384;-76
2023/12/27 05:19:45;;;;;;;3.95;1.40;;;5.10;99.90;;;;;;6313246;22;20022;-76
2023/12/27 05:22:16;;;;;;;5.93;1.98;;;5.10;99.90;;;;;;6339928;22;20034;-76
2023/12/27 05:24:43;;;;;;;4.18;1.80;;;5.20;99.90;;;;;;6287412;22;20022;-76
2023/12/27 05:27:10;;;;;;;6.18;2.13;;;5.20;99.90;;;;;;6286921;22;20415;-76
2023/12/27 05:29:38;;;;;;;3.60;1.60;;;5.20;99.90;;;;;;6261511;22;20027;-76
2023/12/27 05:32:05;;;;;;;5.28;1.70;;;5.20;99.90;;;;;;6286866;22;20025;-76
2023/12/27 05:34:32;;;;;;;3.63;1.42;;;5.20;99.90;;;;;;6261295;22;20014;-76
2023/12/27 05:36:59;;;;;;;5.47;2.13;;;5.20;99.90;;;;;;6287238;22;20013;-76
2023/12/27 05:39:26;;;;;;;4.32;1.50;;;5.20;99.90;;;;;;6286403;22;20031;-76
2023/12/27 05:41:53;;;;;;;4.82;1.35;;;5.20;99.90;;;;;;6287148;22;20011;-76
2023/12/27 05:44:20;;;;;;;3.42;1.40;;;5.20;99.90;;;;;;6312074;22;20019;-76
2023/12/27 05:46:47;;;;;;;4.07;1.50;;;5.30;99.90;;;;;;6286607;22;20113;-76
2023/12/27 05:49:15;;;;;;;3.78;1.55;;;5.30;99.90;;;;;;6286525;22;20023;-76
2023/12/27 05:51:42;;;;;;;5.13;1.70;;;5.30;99.90;;;;;;6339580;22;20095;-76
2023/12/27 05:54:10;;;;;;;3.63;1.27;;;5.30;99.90;;;;;;6286886;22;20349;-76
2023/12/27 05:56:37;;;;;;;3.97;1.10;;;5.30;99.90;;;;;;6286868;22;20080;-76
2023/12/27 05:59:05;;;;;;;3.00;1.02;;;5.30;99.90;;;;;;6312465;22;20034;-77
2023/12/27 06:01:32;;;;;;;4.15;1.42;;;5.40;99.90;;;;;;6286453;22;20026;-76
2023/12/27 06:03:59;;;;;;;2.90;1.13;;;5.40;99.90;;;;;;6312329;22;20401;-77
2023/12/27 06:06:26;;;;;;;4.97;2.03;;;5.40;99.90;;;;;;6286659;22;20046;-77
2023/12/27 06:08:53;;;;;;;6.47;1.73;;;5.40;99.90;;;;;;6286308;22;20019;-76
2023/12/27 06:11:20;;;;;;;3.78;1.58;;;5.50;99.90;;;;;;6286524;22;20053;-76
2023/12/27 06:13:47;;;;;;;4.70;1.65;;;5.50;99.90;;;;;;6311946;22;20018;-76
2023/12/27 06:16:14;;;;;;;3.38;1.25;;;5.50;99.90;;;;;;6285772;22;20112;-76
2023/12/27 06:18:41;;;;;;;3.30;1.35;;;5.50;99.90;;;;;;6312191;22;20019;-76
2023/12/27 06:21:10;;;;;;;3.50;1.42;;;5.50;99.90;;;;;;6286477;22;20456;-76
2023/12/27 06:23:37;;;;;;;4.10;1.30;;;5.50;99.90;;;;;;6287196;22;20068;-77
2023/12/27 06:26:06;;;;;;;3.80;1.30;;;5.60;99.90;;;;;;6312334;22;20018;-76
2023/12/27 06:28:32;;;;;;;3.75;1.60;;;5.60;99.90;;;;;;6339524;22;20021;-77
2023/12/27 06:30:59;;;;;;;5.55;1.52;;;5.60;99.90;;;;;;6286492;22;20498;-76
2023/12/27 06:33:26;;;;;;;3.35;1.58;;;5.60;99.90;;;;;;6286115;22;20463;-76
2023/12/27 06:35:54;;;;;;;4.43;1.27;;;5.70;99.90;;;;;;6286627;22;20051;-77
2023/12/27 06:38:21;;;;;;;4.45;1.70;;;5.70;99.90;;;;;;6286422;22;20018;-76
2023/12/27 06:40:47;;;;;;;3.95;1.45;;;5.70;99.90;;;;;;6286122;22;20048;-76
2023/12/27 06:43:14;;;;;;;5.97;1.98;;;5.70;99.90;;;;;;6285914;22;20396;-76
2023/12/27 06:45:41;;;;;;;7.13;2.20;;;5.70;99.90;;;;;;6311488;22;20050;-76
2023/12/27 06:48:08;;;;;;;4.25;2.00;;;5.80;99.90;;;;;;6260633;22;20334;-76
2023/12/27 06:50:35;;;;;;;5.10;1.80;;;5.80;99.90;;;;;;6286281;22;20026;-76
2023/12/27 06:53:03;;;;;;;4.90;2.17;;;5.80;99.90;;;;;;6311846;22;20019;-76
2023/12/27 06:55:30;;;;;;;4.65;2.38;;;5.80;99.90;;;;;;6311733;22;20433;-77
2023/12/27 06:57:57;;;;;;;6.13;2.40;;;5.80;99.90;;;;;;6286374;22;20065;-76
2023/12/27 07:00:24;;;;;;;6.07;2.50;;;5.80;99.90;;;;;;6286026;22;20019;-76
2023/12/27 07:02:51;;;;;;;6.95;2.05;;;5.80;99.90;;;;;;6286027;22;20046;-76
2023/12/27 07:05:18;;;;;;;4.47;2.00;;;5.80;99.90;;;;;;6311422;22;20355;-76
2023/12/27 07:07:46;;;;;;;5.40;2.15;;;5.80;99.90;;;;;;6285835;22;20102;-77
2023/12/27 07:10:13;;;;;;;5.07;2.15;;;5.80;99.90;;;;;;6286263;22;20019;-76
2023/12/27 07:12:40;;;;;;;3.70;1.85;;;5.80;99.90;;;;;;6311693;22;20049;-76
2023/12/27 07:15:08;;;;;;;6.00;1.90;;;5.90;99.90;;;;;;6285868;22;20015;-77
2023/12/27 07:17:35;;;;;;;6.47;2.35;;;5.90;99.90;;;;;;6339067;22;20021;-77
2023/12/27 07:20:02;;;;;;;5.40;2.40;;;5.90;99.90;;;;;;6285836;22;20042;-84
2023/12/27 07:22:29;;;;;;;6.30;1.85;;;5.90;99.90;;;;;;6286315;22;20015;-78
2023/12/27 07:24:58;;;;;;;4.78;1.98;;;5.90;99.90;;;;;;6286664;22;20071;-77
2023/12/27 07:27:25;;;;;;;4.53;2.20;;;6.00;99.90;;;;;;6311305;22;20444;-85
2023/12/27 07:29:52;;;;;;;8.70;2.78;;;5.90;99.90;;;;;;6285705;22;20019;-78
2023/12/27 07:32:22;;;;;;;6.25;2.63;;;6.00;99.90;;;;;;6261418;22;20030;-78
2023/12/27 07:34:51;;;;;;;5.38;2.35;;;6.00;99.90;;;;;;6285931;22;20019;-77
2023/12/27 07:37:18;;;;;;;4.30;1.88;;;6.00;99.90;;;;;;6264123;22;20018;-77
2023/12/27 07:39:45;;;;;;;6.75;2.00;;;6.00;99.90;;;;;;6343712;22;20022;-82
2023/12/27 07:42:12;;;;;;;4.50;1.70;;;6.00;99.90;;;;;;6293657;22;20022;-77
2023/12/27 07:44:42;;;;;;;7.03;2.40;;;6.00;99.90;;;;;;6288343;22;20025;-78
2023/12/27 07:47:09;;;;;;;5.05;1.95;;;6.00;99.90;;;;;;6312244;22;20027;-78
2023/12/27 07:49:36;;;;;;;5.38;1.48;;;6.00;99.90;;;;;;6285806;22;20030;-78
2023/12/27 07:52:04;;;;;;;6.18;2.25;;;6.00;99.90;;;;;;6311438;22;20482;-77
2023/12/27 07:54:33;;;;;;;3.40;1.50;;;6.10;99.90;;;;;;6260270;22;20092;-77
2023/12/27 07:57:00;;;;;;;5.82;1.75;;;6.10;99.90;;;;;;6280608;22;20042;-79
2023/12/27 07:59:27;;;;;;;4.22;1.88;;;6.10;99.90;;;;;;6311089;22;20047;-83
2023/12/27 08:01:54;;;;;;;6.25;2.55;;;6.10;99.90;;;;;;6285988;22;20089;-78
2023/12/27 08:04:21;;;;;;;4.40;1.55;;;6.10;99.90;;;;;;6283751;22;20031;-78
2023/12/27 08:06:49;;;;;;;4.50;2.05;;;6.10;99.90;;;;;;6285774;22;20069;-78
2023/12/27 08:09:18;;;;;;;4.55;2.35;;;6.10;99.90;;;;;;6311210;22;20015;-81
2023/12/27 08:11:47;;;;;;;7.80;2.10;;;6.10;99.90;;;;;;6311653;22;20105;-88
2023/12/27 08:14:14;;;;;;;4.55;1.75;;;6.10;99.90;;;;;;6261135;22;20019;-89
2023/12/27 08:16:41;;;;;;;6.68;2.00;;;6.10;99.90;;;;;;6255726;22;20015;-87
2023/12/27 08:19:08;;;;;;;8.55;2.33;;;6.10;99.90;;;;;;6286741;22;20021;-88
2023/12/27 08:21:35;;;;;;;5.95;2.38;;;6.20;99.90;;;;;;6256459;22;20043;-88
2023/12/27 08:24:02;;;;;;;6.18;1.75;;;6.20;99.90;;;;;;6281440;22;20080;-89
2023/12/27 08:26:29;;;;;;;4.90;1.55;;;6.20;99.90;;;;;;6281630;22;20065;-89
2023/12/27 08:28:57;;;;;;;5.32;2.53;;;6.20;99.90;;;;;;6281266;22;20327;-81
2023/12/27 08:31:24;;;;;;;6.35;2.10;;;6.20;99.90;;;;;;6284291;22;20425;-78
2023/12/27 08:33:51;;;;;;;3.92;1.58;;;6.20;99.90;;;;;;6310971;22;20106;-78
2023/12/27 08:36:18;;;;;;;4.72;2.17;;;6.20;99.90;;;;;;6285605;22;20434;-77
2023/12/27 08:38:45;;;;;;;4.22;1.48;;;6.20;99.90;;;;;;6279804;22;20054;-78
2023/12/27 08:41:12;;;;;;;3.33;1.65;;;6.20;99.90;;;;;;6254003;22;20358;-79
2023/12/27 08:43:42;;;;;;;4.20;2.10;;;6.20;99.90;;;;;;6287237;22;20048;-78
2023/12/27 08:46:10;;;;;;;4.13;1.65;;;6.30;99.90;;;;;;6312550;22;20018;-78
2023/12/27 08:48:37;;;;;;;6.13;2.65;;;6.30;99.90;;;;;;6312547;22;20042;-78
2023/12/27 08:51:05;;;;;;;7.60;2.70;;;6.30;99.90;;;;;;6314016;22;20015;-90
2023/12/27 08:53:32;;;;;;;4.35;1.98;;;6.30;99.90;;;;;;6314104;22;20041;-90
2023/12/27 08:56:03;;;;;;;5.93;2.30;;;6.30;99.90;;;;;;6262857;22;20019;-91
2023/12/27 08:58:30;;;;;;;6.80;3.13;;;6.30;99.90;;;;;;6257336;22;20015;-90
2023/12/27 09:05:40;;;;;;;4.72;2.28;;;6.30;99.90;;;;;;6246252;23;20103;-91
2023/12/27 09:08:14;;;;;;;5.75;2.42;;;6.30;99.90;;;;;;6191172;23;20028;-91
2023/12/27 09:10:41;;;;;;;3.67;1.50;;;6.40;99.90;;;;;;6220982;23;20024;-91
2023/12/27 09:17:04;;;;;;;4.22;1.38;;;6.50;99.90;;;;;;6220845;23;20070;-91
2023/12/27 09:19:31;;;;;;;5.20;2.40;;;6.50;99.90;;;;;;6220993;23;20102;-90
2023/12/27 09:22:01;;;;;;;4.53;2.28;;;6.50;99.90;;;;;;6220853;23;20103;-85
2023/12/27 09:24:28;;;;;;;5.10;2.65;;;6.50;99.90;;;;;;6196504;23;20020;-86
2023/12/27 09:26:55;;;;;;;5.32;2.40;;;6.60;99.90;;;;;;6195690;23;20119;-87
2023/12/27 09:29:23;;;;;;;4.88;2.33;;;6.60;99.90;;;;;;6169489;23;20027;-85
2023/12/27 09:31:50;;;;;;;3.90;1.98;;;6.60;99.90;;;;;;6221297;22;20019;-86
2023/12/27 09:34:17;;;;;;;4.22;1.88;;;6.60;99.90;;;;;;6259893;22;20182;-90
2023/12/27 09:36:44;;;;;;;3.75;1.95;;;6.70;99.90;;;;;;6262594;22;20027;-88
2023/12/27 09:39:13;;;;;;;3.20;1.90;;;6.70;99.90;;;;;;6262774;22;20022;-87
2023/12/27 09:41:40;;;;;;;3.92;2.03;;;6.70;99.90;;;;;;6288407;22;20384;-87
2023/12/27 09:44:12;;;;;;;3.40;1.60;;;6.80;99.90;;;;;;6262497;22;20018;-87
2023/12/27 09:46:39;;;;;;;2.65;1.35;;;6.80;99.90;;;;;;6288158;22;20018;-88
2023/12/27 09:49:08;;;;;;;4.38;1.88;;;6.80;99.90;;;;;;6287857;22;20089;-87
2023/12/27 09:51:38;;;;;;;4.32;1.73;;;6.90;99.90;;;;;;6288414;22;20015;-87
2023/12/27 09:54:06;;;;;;;3.80;1.70;;;6.90;99.90;;;;;;6287350;22;20045;-82
2023/12/27 09:56:33;;;;;;;2.88;1.60;;;7.00;99.90;;;;;;6286190;22;20014;-78
2023/12/27 09:59:12;;;;;;;3.78;2.05;;;7.00;99.90;;;;;;6281348;22;20093;-93
2023/12/27 10:01:51;;;;;;;3.92;2.10;;;7.10;99.90;;;;;;6277981;22;20015;-92
2023/12/27 10:04:37;;;;;;;5.55;1.95;;;7.10;99.90;;;;;;6311642;22;20449;-92
2023/12/27 10:07:04;;;;;;;3.45;1.73;;;7.20;99.90;;;;;;6289025;22;20349;-92
2023/12/27 10:09:33;;;;;;;3.35;1.40;;;7.20;99.90;;;;;;6289579;22;20026;-88
2023/12/27 10:12:01;;;;;;;3.92;1.80;;;7.30;99.90;;;;;;6313700;22;20026;-89
2023/12/27 10:14:31;;;;;;;4.50;2.55;;;7.40;99.90;;;;;;6287447;22;20071;-89
2023/12/27 10:16:58;;;;;;;4.07;1.95;;;7.40;99.90;;;;;;6286494;22;20445;-78
2023/12/27 10:19:41;;;;;;;5.20;2.47;;;7.50;99.90;;;;;;6312884;22;20015;-89
2023/12/27 10:22:10;;;;;;;4.10;2.10;;;7.50;99.90;;;;;;6287475;22;20011;-88
2023/12/27 10:24:37;;;;;;;3.67;1.73;;;7.50;99.90;;;;;;6313129;22;20019;-81
2023/12/27 10:27:09;;;;;;;4.15;1.70;;;7.60;99.90;;;;;;6286725;22;20501;-83
2023/12/27 10:29:36;;;;;;;4.53;1.90;;;7.60;99.90;;;;;;6287111;22;20398;-87
2023/12/27 10:32:06;;;;;;;4.63;1.55;;;7.60;99.90;;;;;;6287781;22;20023;-88
2023/12/27 10:34:34;;;;;;;3.10;1.85;;;7.70;99.90;;;;;;6312963;22;20065;-86
2023/12/27 10:37:01;;;;;;;3.47;1.75;;;7.70;99.90;;;;;;6287198;22;20023;-86
2023/12/27 10:39:29;;;;;;;3.60;1.80;;;7.70;99.90;;;;;;6286630;22;20029;-89
2023/12/27 10:41:58;;;;;;;4.10;2.35;;;7.70;99.90;;;;;;6287378;22;20023;-85
2023/12/27 10:44:25;;;;;;;5.28;2.30;;;7.80;99.90;;;;;;6260295;22;20101;-86
2023/12/27 10:46:54;;;;;;;4.68;2.35;;;7.80;99.90;;;;;;6261866;22;20015;-83
2023/12/27 10:49:24;;;;;;;5.35;2.28;;;7.80;99.90;;;;;;6287243;22;20054;-85
2023/12/27 10:51:55;;;;;;;5.13;2.63;;;7.90;99.90;;;;;;6262453;22;20089;-78
2023/12/27 10:54:24;;;;;;;4.25;2.55;;;7.90;99.90;;;;;;6287047;22;20445;-84
2023/12/27 10:56:53;;;;;;;5.85;3.38;;;7.90;99.90;;;;;;6280952;22;20015;-83
2023/12/27 10:59:20;;;;;;;5.00;3.13;;;7.90;99.90;;;;;;6310353;22;20019;-83
2023/12/27 11:01:48;;;;;;;5.03;2.75;;;7.90;99.90;;;;;;6286455;22;20015;-81
2023/12/27 11:04:20;;;;;;;5.10;2.72;;;7.90;99.90;;;;;;6286531;22;20027;-89
2023/12/27 11:06:49;;;;;;;5.50;3.00;;;7.90;99.90;;;;;;6314099;22;20045;-87
2023/12/27 11:09:18;;;;;;;4.85;2.50;;;8.00;99.90;;;;;;6287439;22;20029;-88
2023/12/27 11:11:49;;;;;;;6.10;2.92;;;8.00;99.90;;;;;;6287211;22;20023;-89
2023/12/27 11:14:24;;;;;;;4.50;2.38;;;8.00;99.90;;;;;;6264118;22;20436;-89
2023/12/27 11:16:54;;;;;;;4.00;2.30;;;8.00;99.90;;;;;;6312613;22;20391;-88
2023/12/27 11:19:24;;;;;;;4.93;2.60;;;8.10;99.90;;;;;;6312623;22;20021;-86
2023/12/27 11:21:51;;;;;;;4.93;1.80;;;8.10;99.90;;;;;;6282306;22;20106;-90
2023/12/27 11:24:18;;;;;;;3.88;1.60;;;8.10;99.90;;;;;;6285282;22;20485;-88
2023/12/27 11:26:48;;;;;;;3.03;1.65;;;8.20;99.90;;;;;;6295033;22;20025;-88
2023/12/27 11:29:16;;;;;;;3.45;1.50;;;8.20;99.90;;;;;;6298007;22;20437;-91
2023/12/27 11:31:44;;;;;;;2.97;1.20;;;8.30;99.90;;;;;;6277773;22;20433;-90
2023/12/27 11:34:12;;;;;;;2.35;1.00;;;8.30;99.90;;;;;;6291035;22;20029;-85
2023/12/27 11:36:39;;;;;;;3.97;1.30;;;8.30;99.90;;;;;;6263267;22;20101;-86
2023/12/27 11:39:20;;;;;;;2.75;1.42;;;8.40;99.90;;;;;;6262229;22;20023;-90
2023/12/27 11:41:48;;;;;;;2.63;1.10;;;8.40;99.90;;;;;;6283429;22;20015;-90
2023/12/27 11:44:15;;;;;;;2.15;0.90;;;8.40;99.90;;;;;;6280980;22;20094;-86
2023/12/27 11:46:43;;;;;;;3.15;1.25;;;8.40;99.90;;;;;;6262910;22;20492;-87
2023/12/27 11:49:19;;;;;;;2.70;1.08;;;8.40;99.90;;;;;;6283291;22;20023;-87
2023/12/27 11:51:47;;;;;;;3.00;1.02;;;8.40;99.90;;;;;;6286805;22;20019;-86
2023/12/27 11:54:25;;;;;;;3.45;1.35;;;8.40;99.90;;;;;;6312824;22;20022;-86
2023/12/27 11:56:54;;;;;;;2.42;1.00;;;8.50;99.90;;;;;;6282918;22;20026;-90
2023/12/27 11:59:30;;;;;;;2.90;1.13;;;8.50;99.90;;;;;;6312188;22;20026;-86
2023/12/27 12:02:00;;;;;;;1.90;0.70;;;8.50;99.90;;;;;;6262351;22;20348;-79
2023/12/27 12:04:45;;;;;;;2.78;1.33;;;8.50;99.90;;;;;;6311526;22;20060;-79
2023/12/27 12:07:30;;;;;;;1.60;0.60;;;8.60;99.90;;;;;;6311203;22;20022;-78
2023/12/27 12:09:57;;;;;;;3.72;1.45;;;8.60;99.90;;;;;;6280342;22;20019;-78
2023/12/27 12:12:25;;;;;;;4.07;1.40;;;8.60;99.90;;;;;;6284243;22;20019;-77
2023/12/27 12:14:53;;;;;;;4.15;1.52;;;8.60;99.90;;;;;;6286563;22;20046;-78
2023/12/27 12:17:26;;;;;;;3.42;0.95;;;8.70;99.90;;;;;;6288379;22;20026;-77
2023/12/27 12:19:55;;;;;;;3.33;1.20;;;8.70;99.90;;;;;;6263165;22;20468;-86
2023/12/27 12:22:22;;;;;;;4.35;1.08;;;8.70;99.90;;;;;;6287220;22;20023;-84
2023/12/27 12:24:49;;;;;;;2.42;1.13;;;8.80;99.90;;;;;;6283114;22;20430;-84
2023/12/27 12:27:23;;;;;;;3.75;1.38;;;8.80;99.90;;;;;;6263038;22;20023;-87
2023/12/27 12:29:53;;;;;;;2.88;1.20;;;8.80;99.90;;;;;;6284326;22;20380;-89
2023/12/27 12:32:20;;;;;;;2.22;1.00;;;8.80;99.90;;;;;;6314400;22;20342;-89
2023/12/27 12:34:47;;;;;;;1.98;0.90;;;8.80;99.90;;;;;;6263665;22;20042;-89
2023/12/27 12:37:15;;;;;;;2.17;0.95;;;8.80;99.90;;;;;;6284967;22;20015;-87
2023/12/27 12:39:43;;;;;;;2.55;0.95;;;8.90;99.90;;;;;;6262935;22;20018;-90
2023/12/27 12:42:10;;;;;;;2.83;0.80;;;8.90;99.90;;;;;;6285050;22;20077;-87
2023/12/27 12:44:38;;;;;;;2.60;1.00;;;8.90;99.90;;;;;;6288600;22;20019;-88
2023/12/27 12:47:05;;;;;;;1.52;0.65;;;8.90;99.90;;;;;;6257819;22;20030;-85
2023/12/27 12:49:33;;;;;;;1.52;0.90;;;8.90;99.90;;;;;;6262368;22;20029;-85
2023/12/27 12:52:06;;;;;;;1.45;0.88;;;8.90;99.90;;;;;;6287838;22;20028;-83
2023/12/27 12:54:35;;;;;;;2.70;0.80;;;8.90;99.90;;;;;;6287798;22;20021;-86
2023/12/27 12:57:04;;;;;;;1.08;0.60;;;8.90;99.90;;;;;;6313861;22;20022;-91
2023/12/27 12:59:31;;;;;;;2.00;0.60;;;8.90;99.90;;;;;;6288227;22;20022;-86
2023/12/27 13:01:59;;;;;;;5.28;0.80;;;9.00;99.90;;;;;;6282831;22;20041;-90
2023/12/27 13:05:12;;;;;;;2.20;0.68;;;9.00;99.90;;;;;;6287422;22;20053;-89
2023/12/27 13:07:42;;;;;;;1.98;0.70;;;9.00;99.90;;;;;;6263017;22;20018;-87
2023/12/27 13:10:10;;;;;;;1.20;0.60;;;9.00;99.90;;;;;;6250628;22;20054;-84